Time;durP1;ratioP1;P1;durP2;ratioP2;P2;SDS_P1;SDS_P2;PMS_P1;PMS_P2;Temp;Humidity;BMP_temperature;BMP_pressure;BME280_temperature;BME280_humidity;BME280_pressure;Samples;Min_cycle;Max_cycle;Signal;HPM_P1;HPM_P2
2023/03/02 00:04:15;;;;;;;6.55;5.75;;;;;;;-0.97;100.00;99041.69;15290361;19;20039;-50
2023/03/02 00:09:44;;;;;;;7.75;6.30;;;;;;;-0.95;100.00;99037.19;15288537;19;20500;-46
2023/03/02 00:15:08;;;;;;;6.65;5.85;;;;;;;-0.96;100.00;99041.59;15289568;19;20014;-46
2023/03/02 00:20:39;;;;;;;6.75;6.05;;;;;;;-0.99;100.00;99043.53;15293386;19;20050;-46
2023/03/02 00:26:07;;;;;;;7.93;5.95;;;;;;;-0.89;100.00;99033.38;15291703;19;20018;-48
2023/03/02 00:31:31;;;;;;;8.02;6.03;;;;;;;-0.79;100.00;99019.63;15290890;19;20014;-48
2023/03/02 00:36:55;;;;;;;7.35;5.88;;;;;;;-0.63;100.00;99009.13;15292844;19;20010;-47
2023/03/02 00:42:23;;;;;;;6.28;5.53;;;;;;;-0.54;100.00;99004.34;15288563;19;20081;-47
2023/03/02 00:47:48;;;;;;;6.85;5.07;;;;;;;-0.48;100.00;98999.59;15284853;19;20089;-47
2023/03/02 00:53:13;;;;;;;7.72;5.53;;;;;;;-0.50;100.00;98996.16;15288882;19;20054;-47
2023/03/02 00:58:40;;;;;;;6.40;5.10;;;;;;;-0.47;100.00;98993.34;15289705;19;20018;-47
2023/03/02 01:04:12;;;;;;;7.38;5.50;;;;;;;-0.56;100.00;98991.16;15285723;19;20015;-47
2023/03/02 01:09:37;;;;;;;5.97;5.10;;;;;;;-0.62;100.00;98987.03;15284251;19;20018;-46
2023/03/02 01:15:04;;;;;;;6.50;5.57;;;;;;;-0.68;100.00;98990.00;15287580;19;20496;-47
2023/03/02 01:20:29;;;;;;;8.45;5.43;;;;;;;-0.79;100.00;98981.75;15280869;19;20010;-47
2023/03/02 01:25:54;;;;;;;8.23;5.78;;;;;;;-0.86;100.00;98983.81;15288321;19;20698;-46
2023/03/02 01:31:22;;;;;;;6.45;5.30;;;;;;;-0.96;100.00;98987.84;15286982;19;20022;-48
2023/03/02 01:36:48;;;;;;;9.68;5.97;;;;;;;-1.06;100.00;98978.66;15288358;19;20534;-46
2023/03/02 01:48:36;;;;;;;7.13;6.00;;;;;;;-1.30;100.00;98976.25;15284303;19;20389;-46
2023/03/02 01:54:21;;;;;;;7.93;6.00;;;;;;;-1.40;100.00;98975.81;15280567;19;20034;-45
2023/03/02 01:59:49;;;;;;;7.50;6.03;;;;;;;-1.50;100.00;98970.09;15285928;19;20022;-46
2023/03/02 02:05:33;;;;;;;8.63;5.90;;;;;;;-1.62;100.00;98974.19;15282684;19;20044;-48
2023/03/02 02:10:58;;;;;;;7.65;6.43;;;;;;;-1.75;100.00;98973.03;15283080;19;20010;-47
2023/03/02 02:16:23;;;;;;;8.35;6.38;;;;;;;-1.80;100.00;98967.09;15283374;19;20480;-48
2023/03/02 02:21:51;;;;;;;8.77;6.28;;;;;;;-1.83;100.00;98961.97;15283710;19;20019;-47
2023/03/02 02:27:21;;;;;;;8.80;6.50;;;;;;;-1.91;100.00;98965.78;15280752;19;20018;-46
2023/03/02 02:32:48;;;;;;;7.50;6.30;;;;;;;-1.99;100.00;98973.22;15288127;19;20014;-45
2023/03/02 02:38:16;;;;;;;7.40;6.43;;;;;;;-1.97;100.00;98970.47;15299813;19;20015;-47
2023/03/02 02:43:43;;;;;;;7.72;6.18;;;;;;;-2.03;100.00;98963.69;15291913;19;20034;-46
2023/03/02 02:49:11;;;;;;;7.82;6.30;;;;;;;-2.08;100.00;98963.06;15294738;19;20078;-45
2023/03/02 02:54:38;;;;;;;8.30;6.60;;;;;;;-2.13;100.00;98951.84;15296947;19;20017;-49
2023/03/02 03:00:11;;;;;;;7.88;6.75;;;;;;;-2.19;100.00;98945.91;15295984;19;20379;-47
2023/03/02 03:05:42;;;;;;;7.38;6.43;;;;;;;-2.28;100.00;98951.56;15296467;19;20082;-47
2023/03/02 03:11:08;;;;;;;7.80;6.43;;;;;;;-2.35;100.00;98955.41;15293015;19;20016;-46
2023/03/02 03:16:38;;;;;;;8.75;6.80;;;;;;;-2.46;100.00;98952.38;15293593;19;20022;-45
2023/03/02 03:22:04;;;;;;;7.88;6.45;;;;;;;-2.48;100.00;98955.09;15291408;19;20019;-47
2023/03/02 03:27:32;;;;;;;8.55;6.75;;;;;;;-2.55;100.00;98965.06;15287583;19;20517;-46
2023/03/02 03:33:00;;;;;;;7.90;6.78;;;;;;;-2.61;100.00;98970.59;15291812;19;20039;-46
2023/03/02 03:38:26;;;;;;;8.73;6.13;;;;;;;-2.67;100.00;98957.66;15296154;19;20010;-44
2023/03/02 03:43:51;;;;;;;7.65;6.75;;;;;;;-2.72;100.00;98957.00;15288767;19;20373;-44
2023/03/02 03:49:20;;;;;;;8.07;6.85;;;;;;;-2.80;100.00;98954.66;15286339;19;20019;-46
2023/03/02 03:54:46;;;;;;;8.90;6.60;;;;;;;-2.80;100.00;98954.66;15290466;19;20385;-46
2023/03/02 04:00:15;;;;;;;8.43;6.78;;;;;;;-2.84;100.00;98950.47;15286849;19;20019;-49
2023/03/02 04:05:56;;;;;;;10.60;7.10;;;;;;;-2.89;100.00;98944.50;15291807;19;20018;-47
2023/03/02 04:11:21;;;;;;;10.23;7.00;;;;;;;-2.95;100.00;98946.50;15287593;19;20018;-46
2023/03/02 04:16:47;;;;;;;9.65;7.22;;;;;;;-2.99;100.00;98941.38;15289802;19;20015;-46
2023/03/02 04:22:15;;;;;;;8.32;7.13;;;;;;;-3.03;100.00;98942.44;15279056;19;20078;-48
2023/03/02 04:27:40;;;;;;;8.43;6.95;;;;;;;-3.11;100.00;98945.41;15283172;19;20109;-48
2023/03/02 04:33:07;;;;;;;9.48;6.90;;;;;;;-3.16;100.00;98953.50;15273123;19;20022;-47
2023/03/02 04:38:34;;;;;;;10.05;7.85;;;;;;;-3.27;100.00;98951.28;15286755;19;20341;-47
2023/03/02 04:43:59;;;;;;;9.35;7.65;;;;;;;-3.31;100.00;98959.38;15284273;19;20011;-49
2023/03/02 04:49:26;;;;;;;9.35;7.53;;;;;;;-3.35;100.00;98958.63;15290409;19;20482;-44
2023/03/02 04:54:53;;;;;;;10.52;7.65;;;;;;;-3.38;100.00;98960.53;15288471;19;20049;-47
2023/03/02 05:00:20;;;;;;;9.25;7.30;;;;;;;-3.42;100.00;98952.75;15288518;19;20025;-47
2023/03/02 05:05:52;;;;;;;9.43;7.60;;;;;;;-3.48;100.00;98950.38;15282156;19;20754;-44
2023/03/02 05:11:24;;;;;;;8.85;7.75;;;;;;;-3.55;100.00;98951.50;15288290;19;20014;-46
2023/03/02 05:16:50;;;;;;;10.48;8.05;;;;;;;-3.52;100.00;98948.75;15291165;19;20014;-47
2023/03/02 05:22:15;;;;;;;9.75;8.27;;;;;;;-3.49;100.00;98946.00;15285397;19;20744;-46
2023/03/02 05:27:42;;;;;;;9.77;8.07;;;;;;;-3.46;100.00;98943.22;15311303;19;20031;-45
2023/03/02 05:33:07;;;;;;;11.15;8.05;;;;;;;-3.37;100.00;98941.19;15283285;19;20010;-47
2023/03/02 05:38:31;;;;;;;10.93;8.52;;;;;;;-3.32;100.00;98952.38;15278776;19;20021;-47
2023/03/02 05:44:00;;;;;;;10.05;8.25;;;;;;;-3.31;100.00;98951.47;15282462;19;20022;-49
2023/03/02 05:49:24;;;;;;;10.15;7.93;;;;;;;-3.32;100.00;98957.63;15283277;19;20360;-44
2023/03/02 05:54:49;;;;;;;10.25;8.50;;;;;;;-3.32;100.00;98957.63;15285900;19;20023;-46
2023/03/02 06:00:20;;;;;;;10.60;8.18;;;;;;;-3.31;100.00;98954.09;15285657;19;20086;-47
2023/03/02 06:05:52;;;;;;;11.40;8.57;;;;;;;-3.29;100.00;98965.44;15282658;19;20494;-49
2023/03/02 06:11:17;;;;;;;12.40;9.18;;;;;;;-3.25;100.00;98967.03;15290477;19;20349;-47
2023/03/02 06:16:44;;;;;;;11.00;8.52;;;;;;;-3.25;100.00;98977.59;15300524;19;20015;-45
2023/03/02 06:22:09;;;;;;;9.50;8.23;;;;;;;-3.27;100.00;98974.97;15296506;19;20089;-47
2023/03/02 06:27:33;;;;;;;9.50;7.80;;;;;;;-3.29;100.00;98978.59;15298041;19;20560;-45
2023/03/02 06:33:00;;;;;;;9.82;8.20;;;;;;;-3.32;100.00;98981.34;15295564;19;20013;-45
2023/03/02 06:38:25;;;;;;;11.35;8.90;;;;;;;-3.34;100.00;98976.16;15299136;19;20660;-46
2023/03/02 06:43:50;;;;;;;10.73;8.77;;;;;;;-3.33;100.00;98990.19;15286407;19;20098;-44
2023/03/02 06:49:18;;;;;;;9.88;8.30;;;;;;;-3.38;100.00;98982.44;15297128;19;20029;-45
2023/03/02 06:54:43;;;;;;;10.65;9.15;;;;;;;-3.38;100.00;98985.09;15298143;19;20431;-44
2023/03/02 07:00:10;;;;;;;10.77;9.13;;;;;;;-3.34;100.00;98991.09;15296372;19;20015;-45
2023/03/02 07:05:44;;;;;;;13.82;9.20;;;;;;;-3.31;100.00;98991.84;15292170;19;20081;-46
2023/03/02 07:11:10;;;;;;;11.38;9.75;;;;;;;-3.21;100.00;98992.34;15294293;19;20017;-46
2023/03/02 07:16:35;;;;;;;12.40;9.90;;;;;;;-3.11;100.00;98995.47;15292035;19;20018;-47
2023/03/02 07:22:02;;;;;;;10.57;9.52;;;;;;;-2.98;100.00;98982.66;15294248;19;20365;-48
2023/03/02 07:27:27;;;;;;;12.02;9.98;;;;;;;-2.86;100.00;98982.16;15296069;19;20086;-49
2023/03/02 07:32:52;;;;;;;14.13;10.48;;;;;;;-2.71;100.00;98985.06;15291729;19;20025;-45
2023/03/02 07:38:19;;;;;;;15.23;10.68;;;;;;;-2.61;100.00;98986.41;15296553;19;20021;-47
2023/03/02 07:43:44;;;;;;;12.70;10.75;;;;;;;-2.47;100.00;98983.22;15290805;19;20547;-47
2023/03/02 07:49:08;;;;;;;12.00;10.35;;;;;;;-2.32;100.00;98977.25;15290361;19;20051;-49
2023/03/02 07:54:35;;;;;;;14.65;11.70;;;;;;;-2.14;100.00;98979.16;15295884;19;20006;-45
2023/03/02 08:00:00;;;;;;;13.90;11.63;;;;;;;-1.97;100.00;98976.63;15295771;19;20417;-47
2023/03/02 08:05:31;;;;;;;13.55;11.23;;;;;;;-1.82;100.00;98976.88;15289419;19;20528;-44
2023/03/02 08:11:05;;;;;;;12.73;10.90;;;;;;;-1.66;100.00;98969.97;15291578;19;20014;-44
2023/03/02 08:16:30;;;;;;;14.80;11.55;;;;;;;-1.52;100.00;98971.09;15292747;19;20431;-50
2023/03/02 08:21:55;;;;;;;13.30;11.57;;;;;;;-1.39;100.00;98977.53;15283370;19;20014;-50
2023/03/02 08:27:24;;;;;;;12.30;10.95;;;;;;;-1.26;100.00;98976.03;15291811;19;20479;-45
2023/03/02 08:32:49;;;;;;;13.88;11.10;;;;;;;-1.15;100.00;98979.94;15286710;19;20022;-49
2023/03/02 08:38:13;;;;;;;12.43;10.38;;;;;;;-0.98;100.00;98968.56;15290634;19;20025;-45
2023/03/02 08:43:41;;;;;;;12.73;10.80;;;;;;;-0.82;100.00;98977.44;15288239;19;20078;-45
2023/03/02 08:49:05;;;;;;;13.73;11.13;;;;;;;-0.67;100.00;98959.09;15289828;19;20024;-48
2023/03/02 08:54:30;;;;;;;12.65;11.23;;;;;;;-0.54;100.00;98952.25;15286622;19;20475;-51
2023/03/02 08:59:57;;;;;;;14.68;11.57;;;;;;;-0.36;100.00;98953.09;15289678;19;20475;-47
2023/03/02 09:05:28;;;;;;;13.60;12.20;;;;;;;-0.18;100.00;98951.28;15288790;19;20534;-47
2023/03/02 09:10:53;;;;;;;12.65;11.05;;;;;;;0.02;100.00;98948.53;15288796;19;20365;-48
2023/03/02 09:16:22;;;;;;;15.32;10.85;;;;;;;0.21;100.00;98940.44;15290379;19;20011;-52
2023/03/02 09:21:48;;;;;;;13.55;10.70;;;;;;;0.36;100.00;98944.06;15287435;19;20033;-47
2023/03/02 09:27:13;;;;;;;12.15;10.80;;;;;;;0.53;100.00;98946.63;15284463;19;20021;-48
2023/03/02 09:32:40;;;;;;;12.23;10.88;;;;;;;0.71;100.00;98949.19;15286970;19;20043;-48
2023/03/02 09:38:05;;;;;;;13.02;11.07;;;;;;;0.84;100.00;98938.75;15288638;19;20011;-50
2023/03/02 09:43:43;;;;;;;13.00;10.35;;;;;;;1.00;100.00;98928.13;15284510;19;20577;-46
2023/03/02 09:49:24;;;;;;;11.93;10.68;;;;;;;1.13;100.00;98929.13;15286995;19;20483;-52
2023/03/02 09:54:50;;;;;;;13.73;10.60;;;;;;;1.30;100.00;98930.78;15287220;19;20479;-51
2023/03/02 10:00:20;;;;;;;12.20;10.60;;;;;;;1.49;100.00;98935.88;15284866;19;20479;-48
2023/03/02 10:05:55;;;;;;;12.68;10.95;;;;;;;1.60;100.00;98943.22;15282731;19;20017;-47
2023/03/02 10:11:28;;;;;;;12.18;10.55;;;;;;;1.68;100.00;98953.38;15283215;19;20086;-48
2023/03/02 10:16:57;;;;;;;11.90;10.70;;;;;;;1.80;100.00;98949.97;15284147;19;20029;-50
2023/03/02 10:22:30;;;;;;;14.77;10.80;;;;;;;1.93;100.00;98938.63;15284211;19;20015;-50
2023/03/02 10:27:59;;;;;;;13.15;10.18;;;;;;;2.05;100.00;98943.19;15279266;19;20487;-47
2023/03/02 10:33:24;;;;;;;13.50;9.77;;;;;;;2.17;100.00;98940.72;15279310;19;20021;-48
2023/03/02 10:38:51;;;;;;;11.45;9.63;;;;;;;2.27;100.00;98925.88;15286793;19;20007;-49
2023/03/02 10:44:23;;;;;;;12.60;9.50;;;;;;;2.31;100.00;98922.94;15284691;19;20014;-47
2023/03/02 10:49:51;;;;;;;10.13;9.13;;;;;;;2.49;100.00;98925.38;15284831;19;20477;-48
2023/03/02 10:55:19;;;;;;;9.75;8.75;;;;;;;2.62;100.00;98925.47;15274582;19;20070;-48
2023/03/02 11:00:44;;;;;;;10.52;8.43;;;;;;;2.77;100.00;98926.28;15291869;19;20344;-48
2023/03/02 11:06:27;;;;;;;11.65;8.77;;;;;;;2.86;100.00;98909.69;15294407;19;20428;-48
2023/03/02 11:11:59;;;;;;;9.48;8.02;;;;;;;3.04;100.00;98904.97;15296071;19;20014;-47
2023/03/02 11:17:38;;;;;;;10.15;9.05;;;;;;;3.14;100.00;98899.91;15296165;19;20029;-51
2023/03/02 11:23:15;;;;;;;11.10;8.57;;;;;;;3.23;100.00;98893.97;15293546;19;20463;-47
2023/03/02 11:28:54;;;;;;;10.20;7.78;;;;;;;3.37;100.00;98895.69;15298012;19;20011;-51
2023/03/02 11:34:30;;;;;;;8.30;7.40;;;;;;;3.53;100.00;98886.66;15292132;19;20018;-48
2023/03/02 11:40:10;;;;;;;9.68;7.10;;;;;;;3.62;100.00;98883.34;15294744;19;20073;-50
2023/03/02 11:45:43;;;;;;;11.48;7.45;;;;;;;3.78;100.00;98866.31;15292858;19;20369;-48
2023/03/02 11:51:12;;;;;;;9.38;7.38;;;;;;;3.90;100.00;98854.78;15292229;19;20029;-47
2023/03/02 11:56:40;;;;;;;9.38;7.13;;;;;;;4.10;100.00;98850.72;15295490;19;20018;-48
2023/03/02 12:02:08;;;;;;;9.93;7.60;;;;;;;4.31;100.00;98853.63;15291607;19;20014;-51
2023/03/02 12:07:33;;;;;;;9.60;7.72;;;;;;;4.44;100.00;98839.41;15285623;19;20006;-48
2023/03/02 12:13:10;;;;;;;6.32;5.20;;;;;;;4.60;79.25;98823.97;15288455;19;20014;-48
2023/03/02 12:18:58;;;;;;;7.47;4.90;;;;;;;4.83;65.60;98810.75;15290604;19;20018;-46
2023/03/02 12:24:34;;;;;;;6.65;5.60;;;;;;;5.01;72.08;98818.31;15287719;19;20024;-48
2023/03/02 12:30:13;;;;;;;9.65;6.47;;;;;;;5.09;79.29;98810.59;15290877;19;20073;-47
2023/03/02 12:35:42;;;;;;;7.90;7.10;;;;;;;5.25;91.88;98805.75;15293005;19;20097;-47
2023/03/02 12:41:48;;;;;;;7.88;7.07;;;;;;;5.35;93.30;98802.41;15283994;19;20371;-47
2023/03/02 12:47:25;;;;;;;9.40;7.38;;;;;;;5.56;100.00;98789.16;15288231;19;20014;-48
2023/03/02 12:53:02;;;;;;;9.00;6.68;;;;;;;5.70;93.82;98777.41;15284918;19;20021;-49
2023/03/02 12:58:36;;;;;;;8.18;6.65;;;;;;;5.83;91.22;98779.94;15289732;19;20340;-51
2023/03/02 13:04:01;;;;;;;11.55;6.45;;;;;;;6.02;85.99;98774.00;15288469;19;20018;-51
2023/03/02 13:09:29;;;;;;;7.97;6.43;;;;;;;6.11;85.19;98759.88;15282386;19;20024;-45
2023/03/02 13:15:00;;;;;;;6.50;5.60;;;;;;;6.37;78.43;98756.91;15286880;19;20011;-46
2023/03/02 13:20:25;;;;;;;6.03;5.10;;;;;;;6.60;83.84;98754.16;15287642;19;20081;-46
2023/03/02 13:25:54;;;;;;;6.82;6.00;;;;;;;6.71;74.79;98762.16;15286612;19;20029;-46
2023/03/02 13:31:28;;;;;;;6.55;5.53;;;;;;;6.79;71.09;98748.94;15286902;19;20019;-45
2023/03/02 13:36:53;;;;;;;6.50;5.28;;;;;;;6.84;74.85;98745.03;15288477;19;20494;-46
2023/03/02 13:42:37;;;;;;;5.78;4.93;;;;;;;6.99;74.93;98730.38;15279381;19;20014;-46
2023/03/02 13:48:16;;;;;;;8.95;4.82;;;;;;;7.13;67.74;98729.16;15287122;19;20081;-46
2023/03/02 13:53:52;;;;;;;5.35;4.50;;;;;;;7.21;69.99;98724.00;15283252;19;20618;-46
2023/03/02 13:59:21;;;;;;;6.45;4.25;;;;;;;7.37;67.38;98717.31;15284861;19;20014;-46
2023/03/02 14:04:45;;;;;;;5.78;4.18;;;;;;;7.56;71.20;98704.00;15283453;19;20362;-46
2023/03/02 14:10:12;;;;;;;5.88;4.05;;;;;;;7.62;64.15;98707.97;15285489;19;20486;-46
2023/03/02 14:15:39;;;;;;;3.90;3.50;;;;;;;7.86;63.42;98704.09;15281289;19;20006;-48
2023/03/02 14:21:04;;;;;;;4.47;3.63;;;;;;;7.86;61.88;98690.66;15284112;19;20020;-47
2023/03/02 14:26:42;;;;;;;6.25;3.83;;;;;;;8.01;63.37;98693.81;15282156;19;20024;-50
2023/03/02 14:32:12;;;;;;;4.90;3.80;;;;;;;8.00;60.62;98701.03;15296689;19;20077;-48
2023/03/02 14:37:37;;;;;;;5.80;4.03;;;;;;;8.17;64.54;98690.59;15296081;19;20081;-46
2023/03/02 14:43:02;;;;;;;5.75;3.85;;;;;;;8.21;60.93;98692.00;15292346;19;20091;-48
2023/03/02 14:48:30;;;;;;;3.97;3.35;;;;;;;8.39;60.45;98691.31;15293085;19;20015;-49
2023/03/02 14:53:57;;;;;;;4.07;3.67;;;;;;;8.50;60.03;98696.59;15292539;19;20832;-48
2023/03/02 14:59:23;;;;;;;5.13;4.20;;;;;;;8.71;66.26;98690.22;15296009;19;20078;-48
2023/03/02 15:04:59;;;;;;;6.72;4.95;;;;;;;8.53;61.27;98688.22;15292577;19;21266;-47
2023/03/02 15:10:26;;;;;;;5.50;4.70;;;;;;;8.48;64.57;98672.53;15292358;19;20025;-50
2023/03/02 15:15:52;;;;;;;5.03;4.25;;;;;;;8.47;68.33;98669.97;15295632;19;20014;-50
2023/03/02 15:21:21;;;;;;;4.75;4.15;;;;;;;8.52;67.01;98681.19;15290221;19;20021;-46
2023/03/02 15:26:46;;;;;;;4.80;4.22;;;;;;;8.52;71.18;98681.19;15298171;19;20396;-47
2023/03/02 15:32:11;;;;;;;5.20;4.22;;;;;;;8.47;67.76;98675.34;15290583;19;20011;-46
2023/03/02 15:37:38;;;;;;;4.50;4.10;;;;;;;8.48;69.71;98677.09;15294117;19;20794;-48
2023/03/02 15:43:03;;;;;;;5.35;4.10;;;;;;;8.25;67.85;98669.28;15292059;19;20019;-47
2023/03/02 15:48:27;;;;;;;5.00;4.20;;;;;;;8.10;73.08;98671.53;15293627;19;20413;-51
2023/03/02 15:53:55;;;;;;;5.20;3.67;;;;;;;7.98;72.10;98670.78;15283422;19;20113;-49
2023/03/02 15:59:20;;;;;;;5.55;4.35;;;;;;;7.84;83.27;98671.19;15293943;19;20043;-47
2023/03/02 16:04:51;;;;;;;5.88;4.47;;;;;;;7.65;80.44;98680.88;15290456;19;20098;-47
2023/03/02 16:10:19;;;;;;;8.57;4.53;;;;;;;7.46;85.03;98683.50;15294222;19;20016;-50
2023/03/02 16:15:48;;;;;;;5.70;4.60;;;;;;;7.36;94.71;98680.78;15297716;19;20011;-47
2023/03/02 16:21:14;;;;;;;6.38;4.50;;;;;;;7.06;92.06;98683.31;15341045;19;20026;-50
2023/03/02 16:26:43;;;;;;;5.30;4.80;;;;;;;6.68;100.00;98670.53;15300998;19;20007;-46
2023/03/02 16:32:08;;;;;;;8.05;5.53;;;;;;;6.33;100.00;98669.81;15291850;19;20019;-47
2023/03/02 16:37:32;;;;;;;6.68;6.00;;;;;;;6.02;100.00;98683.06;15292741;19;20010;-46
2023/03/02 16:43:00;;;;;;;7.82;5.43;;;;;;;5.68;100.00;98677.78;15284334;19;20013;-47
2023/03/02 16:48:24;;;;;;;6.10;5.13;;;;;;;5.39;100.00;98684.47;15290756;19;20025;-47
2023/03/02 16:53:49;;;;;;;6.72;5.68;;;;;;;5.10;100.00;98692.13;15282888;19;20014;-48
2023/03/02 16:59:17;;;;;;;6.60;5.90;;;;;;;4.93;100.00;98696.94;15284276;19;20043;-47
2023/03/02 17:04:42;;;;;;;8.75;5.50;;;;;;;4.69;100.00;98704.16;15285748;19;20078;-47
2023/03/02 17:10:07;;;;;;;7.93;5.53;;;;;;;4.49;100.00;98698.53;15283481;19;20018;-49
2023/03/02 17:15:35;;;;;;;8.32;7.43;;;;;;;4.10;100.00;98716.53;15286612;19;20077;-47
2023/03/02 17:21:00;;;;;;;11.10;9.98;;;;;;;3.68;100.00;98719.53;15285165;19;20010;-47
2023/03/02 17:26:28;;;;;;;13.60;12.07;;;;;;;3.29;100.00;98743.56;15288768;19;20135;-49
2023/03/02 17:31:56;;;;;;;16.63;14.93;;;;;;;2.99;100.00;98757.19;15275312;19;20620;-46
2023/03/02 17:37:24;;;;;;;18.17;15.70;;;;;;;2.78;100.00;98773.66;15285297;19;20081;-48
2023/03/02 17:42:49;;;;;;;19.80;17.25;;;;;;;2.54;100.00;98787.63;15280814;19;20018;-47
2023/03/02 17:48:20;;;;;;;20.10;17.35;;;;;;;2.38;100.00;98801.09;15287355;19;20006;-46
2023/03/02 17:53:44;;;;;;;19.90;17.75;;;;;;;2.17;100.00;98807.81;15283125;19;20678;-47
2023/03/02 17:59:09;;;;;;;24.77;20.30;;;;;;;1.99;100.00;98819.50;15286258;19;20010;-46
2023/03/02 18:04:44;;;;;;;24.98;21.35;;;;;;;1.85;100.00;98819.50;15287822;19;20017;-47
2023/03/02 18:10:14;;;;;;;24.38;20.88;;;;;;;1.76;100.00;98826.25;15294167;19;20492;-48
2023/03/02 18:15:38;;;;;;;24.75;21.10;;;;;;;1.70;100.00;98834.63;15294424;19;20014;-50
2023/03/02 18:21:07;;;;;;;27.02;22.15;;;;;;;1.64;100.00;98837.63;15298360;19;20054;-48
2023/03/02 18:26:32;;;;;;;27.42;23.00;;;;;;;1.54;100.00;98856.78;15299917;19;20594;-48
2023/03/02 18:32:12;;;;;;;29.20;23.17;;;;;;;1.45;100.00;98854.69;15288643;19;20021;-46
2023/03/02 18:37:39;;;;;;;32.38;25.23;;;;;;;1.33;100.00;98863.41;15299442;19;20474;-49
2023/03/02 18:43:04;;;;;;;43.50;33.40;;;;;;;1.22;100.00;98879.97;15293420;19;20818;-50
2023/03/02 18:48:28;;;;;;;48.75;35.08;;;;;;;1.10;100.00;98883.34;15304488;19;20022;-47
2023/03/02 18:53:56;;;;;;;58.92;40.05;;;;;;;0.98;100.00;98892.88;15308325;19;20042;-50
2023/03/02 18:59:20;;;;;;;69.28;43.10;;;;;;;0.89;100.00;98903.06;15307296;19;20023;-47
2023/03/02 19:04:45;;;;;;;86.03;44.67;;;;;;;0.76;100.00;98910.03;15298473;19;20021;-49
2023/03/02 19:10:13;;;;;;;157.27;52.88;;;;;;;0.62;100.00;98924.03;15297107;19;20078;-46
2023/03/02 19:15:38;;;;;;;162.48;61.90;;;;;;;0.45;100.00;98936.47;15290734;19;20018;-50
2023/03/02 19:21:03;;;;;;;167.95;62.67;;;;;;;0.39;100.00;98951.84;15296002;19;20029;-53
2023/03/02 19:26:31;;;;;;;176.25;62.83;;;;;;;0.36;100.00;98967.91;15298619;19;20229;-46
2023/03/02 19:31:55;;;;;;;275.60;67.05;;;;;;;0.26;100.00;98970.19;15290092;19;20025;-48
2023/03/02 19:37:20;;;;;;;324.95;64.18;;;;;;;0.19;100.00;98982.06;15291467;19;20417;-48
2023/03/02 19:42:47;;;;;;;168.00;64.00;;;;;;;0.18;100.00;98989.16;15292419;19;20101;-47
2023/03/02 19:48:12;;;;;;;182.10;60.95;;;;;;;0.21;100.00;99002.25;15294659;19;20021;-49
2023/03/02 19:53:36;;;;;;;349.27;59.35;;;;;;;0.24;100.00;99010.03;15286785;19;20014;-51
2023/03/02 19:59:04;;;;;;;176.88;55.17;;;;;;;0.26;100.00;99016.13;15295228;19;20014;-48
2023/03/02 20:04:28;;;;;;;441.88;53.85;;;;;;;0.22;100.00;99008.41;15291065;19;20025;-47
2023/03/02 20:09:53;;;;;;;367.42;51.25;;;;;;;0.19;100.00;99012.06;15284844;19;20487;-45
2023/03/02 20:15:20;;;;;;;240.80;51.53;;;;;;;0.21;100.00;99026.09;15284700;19;20017;-48
2023/03/02 20:20:47;;;;;;;303.63;51.20;;;;;;;0.22;100.00;99019.84;15287909;19;20010;-49
2023/03/02 20:26:12;;;;;;;192.35;51.42;;;;;;;0.21;100.00;99030.53;15289619;19;20028;-47
2023/03/02 20:31:40;;;;;;;273.25;53.15;;;;;;;0.24;100.00;99041.84;15288837;19;20014;-46
2023/03/02 20:37:04;;;;;;;169.02;51.95;;;;;;;0.19;100.00;99046.50;15290952;19;20021;-47
2023/03/02 20:42:31;;;;;;;219.95;50.47;;;;;;;0.19;100.00;99043.84;15282511;19;20081;-46
2023/03/02 20:47:58;;;;;;;363.88;58.15;;;;;;;0.17;100.00;99055.47;15291625;19;20077;-50
2023/03/02 20:53:23;;;;;;;204.82;53.60;;;;;;;0.19;100.00;99059.75;15286636;19;20017;-46
2023/03/02 20:58:49;;;;;;;222.70;53.88;;;;;;;0.19;100.00;99070.34;15292159;19;20018;-48
2023/03/02 21:04:17;;;;;;;243.82;52.20;;;;;;;0.19;100.00;99059.75;15288511;19;20010;-46
2023/03/02 21:09:41;;;;;;;161.18;49.88;;;;;;;0.19;100.00;99054.47;15289093;19;20038;-48
2023/03/02 21:15:07;;;;;;;214.48;50.38;;;;;;;0.20;100.00;99053.53;15280793;19;20816;-45
2023/03/02 21:20:39;;;;;;;348.63;50.35;;;;;;;0.19;100.00;99054.47;15285825;19;20081;-47
2023/03/02 21:26:04;;;;;;;118.25;46.60;;;;;;;0.20;100.00;99044.72;15286851;19;20023;-46
2023/03/02 21:31:28;;;;;;;312.67;49.95;;;;;;;0.22;100.00;99048.16;15288213;19;20429;-48
2023/03/02 21:37:02;;;;;;;372.23;57.15;;;;;;;0.18;100.00;99049.25;15288595;19;20021;-46
2023/03/02 21:42:28;;;;;;;403.70;57.80;;;;;;;0.14;100.00;99038.81;15285957;19;20018;-48
2023/03/02 21:47:53;;;;;;;342.13;55.25;;;;;;;0.13;100.00;99030.94;15286018;19;20074;-49
2023/03/02 21:53:21;;;;;;;313.92;51.53;;;;;;;0.15;100.00;99037.03;15286286;19;20496;-48
2023/03/02 21:58:46;;;;;;;265.65;52.92;;;;;;;0.15;100.00;99018.47;15287898;19;20598;-46
2023/03/02 22:04:17;;;;;;;612.00;58.67;;;;;;;0.11;100.00;99028.38;15277396;19;20017;-45
2023/03/02 22:09:45;;;;;;;583.80;65.05;;;;;;;0.07;100.00;99034.78;15288505;19;20505;-47
2023/03/02 22:15:09;;;;;;;371.85;61.58;;;;;;;0.10;100.00;99039.03;15287107;19;20032;-44
2023/03/02 22:20:34;;;;;;;247.70;54.67;;;;;;;0.11;100.00;99033.69;15283197;19;20019;-46
2023/03/02 22:26:03;;;;;;;257.00;49.50;;;;;;;0.14;100.00;99032.66;15288040;19;20018;-45
2023/03/02 22:31:28;;;;;;;507.73;52.80;;;;;;;0.10;100.00;99036.41;15285978;19;20021;-45
2023/03/02 22:36:52;;;;;;;555.90;57.97;;;;;;;0.03;100.00;99043.81;15284449;19;20018;-47
2023/03/02 22:42:22;;;;;;;218.65;55.75;;;;;;;0.05;100.00;99038.44;15287696;19;20021;-50
2023/03/02 22:47:50;;;;;;;286.27;53.55;;;;;;;0.06;100.00;99037.50;15291536;19;20025;-49
2023/03/02 22:53:25;;;;;;;267.23;50.83;;;;;;;0.09;100.00;99026.72;15295000;19;20015;-43
2023/03/02 22:58:56;;;;;;;634.60;55.30;;;;;;;0.03;100.00;99021.75;15302915;19;20025;-43
2023/03/02 23:04:30;;;;;;;756.10;58.30;;;;;;;0.02;100.00;99034.13;15297077;19;20023;-44
2023/03/02 23:09:55;;;;;;;203.55;53.78;;;;;;;0.04;100.00;99023.47;15300833;19;20023;-47
2023/03/02 23:15:28;;;;;;;271.02;49.25;;;;;;;0.06;100.00;99005.72;15297762;19;20037;-43
2023/03/02 23:20:54;;;;;;;302.83;43.92;;;;;;;0.02;100.00;98998.84;15299045;19;20031;-44
2023/03/02 23:26:19;;;;;;;282.13;43.67;;;;;;;0.03;100.00;99003.22;15295385;19;20764;-42
2023/03/02 23:31:47;;;;;;;392.40;45.95;;;;;;;0.01;100.00;99005.94;15296034;19;20095;-44
2023/03/02 23:37:11;;;;;;;201.32;46.42;;;;;;;-0.05;100.00;99004.47;15294365;19;20013;-45
2023/03/02 23:42:36;;;;;;;249.13;44.60;;;;;;;-0.09;100.00;99010.00;15294964;19;20014;-45
2023/03/02 23:48:03;;;;;;;297.35;47.20;;;;;;;-0.08;100.00;99003.78;15295267;19;20440;-43
2023/03/02 23:53:28;;;;;;;396.48;47.30;;;;;;;-0.11;100.00;98998.63;15292058;19;20406;-43
2023/03/02 23:58:52;;;;;;;385.15;50.47;;;;;;;-0.15;100.00;99008.53;15290800;19;20014;-43
